Time,TemperatureF,DewpointF,PressureIn,WindDirection,WindDirectionDegrees,WindSpeedMPH,WindSpeedGustMPH,Humidity,HourlyPrecipIn,Conditions,Clouds,dailyrainin,SoftwareType,DateUTC
2014-04-18 00:23:00,54.0,32.0,30.30,North,-999,-999.0,-999.0,42,-99.99,,,-99.99,,2014-04-18 04:23:00,
2014-04-18 00:33:00,54.0,32.0,30.30,North,-999,-999.0,-999.0,42,-99.99,,,-99.99,,2014-04-18 04:33:00,
2014-04-18 00:43:00,54.0,32.0,30.30,North,-999,-999.0,-999.0,42,-99.99,,,-99.99,,2014-04-18 04:43:00,
2014-04-18 01:22:00,54.0,32.0,30.29,North,-999,-999.0,-999.0,41,-99.99,,,-99.99,,2014-04-18 05:22:00,
2014-04-18 01:33:00,54.0,32.0,30.29,North,-999,-999.0,-999.0,41,-99.99,,,-99.99,,2014-04-18 05:33:00,
2014-04-18 01:43:00,54.0,32.0,30.29,North,-999,-999.0,-999.0,41,-99.99,,,-99.99,,2014-04-18 05:43:00,
2014-04-18 02:22:00,54.0,31.0,30.28,North,-999,-999.0,-999.0,42,-99.99,,,-99.99,,2014-04-18 06:22:00,
2014-04-18 02:32:00,54.0,31.0,30.28,North,-999,-999.0,-999.0,42,-99.99,,,-99.99,,2014-04-18 06:32:00,
2014-04-18 02:42:00,54.0,31.0,30.28,North,-999,-999.0,-999.0,42,-99.99,,,-99.99,,2014-04-18 06:42:00,
2014-04-18 03:22:00,51.0,29.0,30.27,North,-999,-999.0,-999.0,42,-99.99,,,-99.99,,2014-04-18 07:22:00,
2014-04-18 03:32:00,51.0,29.0,30.27,North,-999,-999.0,-999.0,42,-99.99,,,-99.99,,2014-04-18 07:32:00,
2014-04-18 03:42:00,51.0,29.0,30.27,North,-999,-999.0,-999.0,42,-99.99,,,-99.99,,2014-04-18 07:42:00,
2014-04-18 04:22:00,50.0,29.0,30.27,North,-999,-999.0,-999.0,44,-99.99,,,-99.99,,2014-04-18 08:22:00,
2014-04-18 04:32:00,50.0,29.0,30.27,North,-999,-999.0,-999.0,44,-99.99,,,-99.99,,2014-04-18 08:32:00,
2014-04-18 04:42:00,50.0,29.0,30.27,North,-999,-999.0,-999.0,44,-99.99,,,-99.99,,2014-04-18 08:42:00,
2014-04-18 05:22:00,49.0,29.0,30.26,North,-999,-999.0,-999.0,46,-99.99,,,-99.99,,2014-04-18 09:22:00,
2014-04-18 05:33:00,49.0,29.0,30.26,North,-999,-999.0,-999.0,46,-99.99,,,-99.99,,2014-04-18 09:33:00,
2014-04-18 05:43:00,49.0,29.0,30.26,North,-999,-999.0,-999.0,46,-99.99,,,-99.99,,2014-04-18 09:43:00,
2014-04-18 06:24:00,50.0,27.0,30.27,North,-999,-999.0,-999.0,42,-99.99,,,-99.99,,2014-04-18 10:24:00,
2014-04-18 06:33:00,50.0,27.0,30.27,North,-999,-999.0,-999.0,42,-99.99,,,-99.99,,2014-04-18 10:33:00,
2014-04-18 06:43:00,50.0,27.0,30.27,North,-999,-999.0,-999.0,42,-99.99,,,-99.99,,2014-04-18 10:43:00,
2014-04-18 07:22:00,49.0,28.0,30.27,North,-999,-999.0,-999.0,44,-99.99,,,-99.99,,2014-04-18 11:22:00,
2014-04-18 07:34:00,49.0,28.0,30.27,North,-999,-999.0,-999.0,44,-99.99,,,-99.99,,2014-04-18 11:34:00,
2014-04-18 07:43:00,49.0,28.0,30.27,North,-999,-999.0,-999.0,44,-99.99,,,-99.99,,2014-04-18 11:43:00,
2014-04-18 08:22:00,50.0,29.0,30.29,North,-999,-999.0,-999.0,43,-99.99,,,-99.99,,2014-04-18 12:22:00,
2014-04-18 08:32:00,50.0,29.0,30.29,North,-999,-999.0,-999.0,43,-99.99,,,-99.99,,2014-04-18 12:32:00,
2014-04-18 08:42:00,50.0,29.0,30.29,North,-999,-999.0,-999.0,43,-99.99,,,-99.99,,2014-04-18 12:42:00,
2014-04-18 09:22:00,52.0,29.0,30.29,North,-999,-999.0,-999.0,41,-99.99,,,-99.99,,2014-04-18 13:22:00,
2014-04-18 09:32:00,52.0,29.0,30.29,North,-999,-999.0,-999.0,41,-99.99,,,-99.99,,2014-04-18 13:32:00,
2014-04-18 09:42:00,52.0,29.0,30.29,North,-999,-999.0,-999.0,41,-99.99,,,-99.99,,2014-04-18 13:42:00,
2014-04-18 10:22:00,55.0,32.0,30.30,North,-999,-999.0,-999.0,42,-99.99,,,-99.99,,2014-04-18 14:22:00,
2014-04-18 10:31:00,55.0,32.0,30.30,North,-999,-999.0,-999.0,42,-99.99,,,-99.99,,2014-04-18 14:31:00,
2014-04-18 10:42:00,55.0,32.0,30.30,North,-999,-999.0,-999.0,42,-99.99,,,-99.99,,2014-04-18 14:42:00,
2014-04-18 11:21:00,55.0,34.0,30.30,North,-999,-999.0,-999.0,44,-99.99,,,-99.99,,2014-04-18 15:21:00,
2014-04-18 11:33:00,55.0,34.0,30.30,North,-999,-999.0,-999.0,44,-99.99,,,-99.99,,2014-04-18 15:33:00,
2014-04-18 11:43:00,55.0,34.0,30.30,North,-999,-999.0,-999.0,44,-99.99,,,-99.99,,2014-04-18 15:43:00,